createdAt,value
2024-01-20T00:00:25.996Z,100968.38
2024-01-20T00:02:28.211Z,100965.91
2024-01-20T00:04:30.438Z,100959.44
2024-01-20T00:06:33.584Z,100966.72
2024-01-20T00:08:35.955Z,100973.84
2024-01-20T00:10:38.531Z,100944.53
2024-01-20T00:12:41.357Z,100951.50
2024-01-20T00:14:43.620Z,100955.31
2024-01-20T00:16:47.222Z,100943.03
2024-01-20T00:18:49.364Z,100955.13
2024-01-20T00:20:51.929Z,100970.03
2024-01-20T00:22:54.646Z,100953.97
2024-01-20T00:25:00.345Z,100952.31
2024-01-20T00:27:02.965Z,100948.84
2024-01-20T00:29:05.278Z,100960.44
2024-01-20T00:31:07.534Z,100961.44
2024-01-20T00:33:09.957Z,100965.22
2024-01-20T00:35:12.488Z,100962.75
2024-01-20T00:37:14.813Z,100950.00
2024-01-20T00:39:17.015Z,100953.31
2024-01-20T00:41:22.435Z,100954.31
2024-01-20T00:43:24.950Z,100961.56
2024-01-20T00:45:27.039Z,100950.63
2024-01-20T00:47:29.158Z,100971.16
2024-01-20T00:49:31.267Z,100954.94
2024-01-20T00:51:33.474Z,100969.63
2024-01-20T00:53:35.585Z,100939.88
2024-01-20T00:55:37.697Z,100967.34
2024-01-20T00:57:39.814Z,100958.53
2024-01-20T00:59:41.854Z,100973.75
2024-01-20T01:01:43.996Z,100972.78
2024-01-20T01:03:46.697Z,100978.88
2024-01-20T01:05:48.825Z,100972.13
2024-01-20T01:07:50.994Z,100962.53
2024-01-20T01:09:53.274Z,100972.94
2024-01-20T01:11:55.467Z,100964.34
2024-01-20T01:13:58.024Z,100963.34
2024-01-20T01:16:00.058Z,100944.81
2024-01-20T01:18:02.224Z,100960.53
2024-01-20T01:20:04.567Z,100962.34
2024-01-20T01:22:06.776Z,100952.41
2024-01-20T01:24:08.926Z,100966.66
2024-01-20T01:26:11.083Z,100959.53
2024-01-20T01:28:13.146Z,100981.41
2024-01-20T01:30:15.285Z,100965.50
2024-01-20T01:32:17.434Z,100979.72
2024-01-20T01:34:19.702Z,100971.94
2024-01-20T01:36:21.795Z,100979.88
2024-01-20T01:38:23.958Z,100954.72
2024-01-20T01:40:26.583Z,100972.13
2024-01-20T01:42:28.688Z,100984.34
2024-01-20T01:44:30.820Z,100986.47
2024-01-20T01:46:32.935Z,100955.56
2024-01-20T01:48:35.424Z,100987.66
2024-01-20T01:50:37.932Z,100961.34
2024-01-20T01:52:40.052Z,100971.94
2024-01-20T01:54:42.093Z,100969.44
2024-01-20T01:56:44.362Z,100985.47
2024-01-20T01:58:47.081Z,100948.44
2024-01-20T02:00:49.383Z,100959.66
2024-01-20T02:02:51.499Z,100976.72
2024-01-20T02:04:53.530Z,100962.47
2024-01-20T02:06:56.105Z,100980.84
2024-01-20T02:08:58.438Z,100992.41
2024-01-20T02:11:00.573Z,100986.31
2024-01-20T02:13:02.836Z,100987.13
2024-01-20T02:15:05.322Z,100939.16
2024-01-20T02:17:07.850Z,100976.19
2024-01-20T02:19:10.090Z,100982.66
2024-01-20T02:21:12.281Z,100974.06
2024-01-20T02:23:14.352Z,100981.31
2024-01-20T02:25:16.562Z,100973.69
2024-01-20T02:27:19.099Z,100989.88
2024-01-20T02:29:21.124Z,100985.75
2024-01-20T02:31:23.231Z,100992.69
2024-01-20T02:33:25.472Z,100981.44
2024-01-20T02:35:27.624Z,100985.88
2024-01-20T02:37:29.721Z,100984.41
2024-01-20T02:39:32.573Z,100991.34
2024-01-20T02:41:34.658Z,101003.75
2024-01-20T02:43:36.721Z,100977.28
2024-01-20T02:45:38.837Z,100964.06
2024-01-20T02:47:40.966Z,100960.25
2024-01-20T02:49:43.219Z,100968.06
2024-01-20T02:51:45.462Z,100983.59
2024-01-20T02:53:47.515Z,100975.66
2024-01-20T02:55:49.653Z,100995.53
2024-01-20T02:57:51.732Z,100955.38
2024-01-20T02:59:53.872Z,100947.59
2024-01-20T03:01:56.049Z,100985.00
2024-01-20T03:03:58.297Z,100981.88
2024-01-20T03:06:00.425Z,100983.22
2024-01-20T03:08:02.489Z,100987.84
2024-01-20T03:10:05.135Z,100974.44
2024-01-20T03:12:07.583Z,100989.34
2024-01-20T03:14:13.516Z,100971.63
2024-01-20T03:16:15.626Z,100958.41
2024-01-20T03:18:17.806Z,100975.09
2024-01-20T03:20:19.923Z,100953.78
2024-01-20T03:22:22.073Z,100989.16
2024-01-20T03:24:24.284Z,100986.22
2024-01-20T03:26:26.788Z,100978.09
2024-01-20T03:28:28.814Z,100973.50
2024-01-20T03:30:30.964Z,100979.13
2024-01-20T03:32:33.201Z,100986.72
2024-01-20T03:34:35.431Z,100966.53
2024-01-20T03:36:37.609Z,100955.78
2024-01-20T03:38:39.681Z,100961.75
2024-01-20T03:40:44.930Z,100986.06
2024-01-20T03:42:47.178Z,100967.22
2024-01-20T03:44:49.263Z,100968.69
2024-01-20T03:46:51.284Z,100977.81
2024-01-20T03:48:53.755Z,100989.09
2024-01-20T03:50:56.056Z,100984.28
2024-01-20T03:52:58.119Z,100994.53
2024-01-20T03:55:00.443Z,100984.59
2024-01-20T03:57:02.591Z,101007.28
2024-01-20T03:59:04.681Z,101002.66
2024-01-20T04:01:06.910Z,101004.97
2024-01-20T04:03:09.121Z,100999.84
2024-01-20T04:05:11.352Z,100986.09
2024-01-20T04:07:13.468Z,100993.38
2024-01-20T04:09:15.577Z,100990.41
2024-01-20T04:11:18.722Z,100997.88
2024-01-20T04:13:20.950Z,101004.63
2024-01-20T04:15:23.071Z,101015.09
2024-01-20T04:17:25.252Z,101005.16
2024-01-20T04:19:27.369Z,101021.38
2024-01-20T04:21:29.619Z,100999.50
2024-01-20T04:23:31.676Z,100990.56
2024-01-20T04:25:33.676Z,101006.47
2024-01-20T04:27:41.446Z,101004.63
2024-01-20T04:29:43.674Z,101018.72
2024-01-20T04:31:46.623Z,101055.50
2024-01-20T04:33:48.811Z,100985.59
2024-01-20T04:35:51.108Z,101005.78
2024-01-20T04:37:53.277Z,101012.09
2024-01-20T04:39:57.349Z,100990.06
2024-01-20T04:41:59.421Z,101027.16
2024-01-20T04:44:01.462Z,101031.47
2024-01-20T04:46:03.676Z,101058.81
2024-01-20T04:48:06.240Z,101019.03
2024-01-20T04:50:08.692Z,101071.91
2024-01-20T04:52:10.724Z,101012.75
2024-01-20T04:54:12.873Z,101028.81
2024-01-20T04:56:15.199Z,101013.91
2024-01-20T04:58:17.361Z,101022.69
2024-01-20T05:00:19.679Z,101023.53
2024-01-20T05:02:21.787Z,101087.16
2024-01-20T05:04:24.092Z,101031.47
2024-01-20T05:06:26.401Z,101041.91
2024-01-20T05:08:28.484Z,101015.38
2024-01-20T05:10:30.594Z,101025.84
2024-01-20T05:12:32.652Z,101031.47
2024-01-20T05:14:34.751Z,101029.66
2024-01-20T05:16:36.780Z,101022.69
2024-01-20T05:18:38.992Z,100984.44
2024-01-20T05:20:41.177Z,101011.25
2024-01-20T05:22:43.737Z,101032.66
2024-01-20T05:24:46.095Z,101041.59
2024-01-20T05:26:48.132Z,101022.88
2024-01-20T05:28:50.226Z,101019.41
2024-01-20T05:30:52.320Z,100974.31
2024-01-20T05:32:54.462Z,101027.34
2024-01-20T05:34:56.655Z,101023.03
2024-01-20T05:36:58.792Z,101028.16
2024-01-20T05:39:00.939Z,101000.97
2024-01-20T05:41:03.000Z,101041.59
2024-01-20T05:43:05.565Z,101018.72
2024-01-20T05:45:10.663Z,101110.53
2024-01-20T05:47:13.013Z,101058.81
2024-01-20T05:49:15.291Z,101018.22
2024-01-20T05:51:17.545Z,101017.22
2024-01-20T05:53:21.208Z,101034.63
2024-01-20T05:55:23.345Z,101051.34
2024-01-20T05:57:25.486Z,101036.09
2024-01-20T05:59:27.517Z,100996.50
2024-01-20T06:01:29.934Z,101038.75
2024-01-20T06:03:32.065Z,101035.13
2024-01-20T06:05:34.343Z,101041.91
2024-01-20T06:07:36.404Z,101038.59
2024-01-20T06:09:38.680Z,101009.28
2024-01-20T06:11:42.231Z,101033.97
2024-01-20T06:13:44.338Z,101032.31
2024-01-20T06:15:46.738Z,101037.59
2024-01-20T06:17:49.019Z,101042.72
2024-01-20T06:19:51.181Z,101061.47
2024-01-20T06:21:53.349Z,101083.50
2024-01-20T06:23:55.703Z,101063.94
2024-01-20T06:25:58.210Z,101092.28
2024-01-20T06:28:00.352Z,101046.38
2024-01-20T06:30:02.403Z,101048.38
2024-01-20T06:32:04.756Z,101053.00
2024-01-20T06:34:07.112Z,101054.00
2024-01-20T06:36:09.351Z,101036.47
2024-01-20T06:38:11.636Z,101046.06
2024-01-20T06:40:14.003Z,101077.88
2024-01-20T06:42:16.278Z,101056.66
2024-01-20T06:44:18.554Z,101059.31
2024-01-20T06:46:20.577Z,101069.75
2024-01-20T06:48:22.829Z,101062.47
2024-01-20T06:50:24.908Z,101055.34
2024-01-20T06:52:26.913Z,101026.66
2024-01-20T06:54:29.167Z,101074.72
2024-01-20T06:56:31.293Z,101054.31
2024-01-20T06:58:33.354Z,101066.44
2024-01-20T07:00:35.524Z,101103.38
2024-01-20T07:02:37.699Z,101078.38
2024-01-20T07:04:39.801Z,101083.50
2024-01-20T07:06:41.881Z,101056.81
2024-01-20T07:08:44.015Z,101036.75
2024-01-20T07:10:46.851Z,101121.63
2024-01-20T07:12:48.948Z,101123.47
2024-01-20T07:14:51.056Z,101032.28
2024-01-20T07:16:53.602Z,101072.06
2024-01-20T07:18:56.293Z,101043.91
2024-01-20T07:20:58.578Z,101096.75
2024-01-20T07:23:00.605Z,101065.75
2024-01-20T07:25:02.995Z,101089.31
2024-01-20T07:27:05.132Z,101093.75
2024-01-20T07:29:07.204Z,101042.03
2024-01-20T07:31:09.354Z,101078.16
2024-01-20T07:33:11.578Z,101101.53
2024-01-20T07:35:13.801Z,101086.63
2024-01-20T07:37:17.667Z,101102.53
2024-01-20T07:39:19.997Z,101062.56
2024-01-20T07:41:22.115Z,101051.31
2024-01-20T07:43:24.172Z,101099.72
2024-01-20T07:45:28.422Z,101114.81
2024-01-20T07:47:30.609Z,101064.91
2024-01-20T07:49:33.353Z,101073.88
2024-01-20T07:51:35.756Z,101080.47
2024-01-20T07:53:38.001Z,101132.56
2024-01-20T07:55:40.139Z,101072.69
2024-01-20T07:57:42.334Z,101105.03
2024-01-20T07:59:44.414Z,101091.75
2024-01-20T08:01:46.512Z,101057.09
2024-01-20T08:03:48.749Z,101108.34
2024-01-20T08:05:50.898Z,101081.28
2024-01-20T08:07:52.935Z,101115.63
2024-01-20T08:09:55.014Z,101105.00
2024-01-20T08:11:57.197Z,101107.34
2024-01-20T08:14:00.143Z,101118.13
2024-01-20T08:16:02.212Z,101113.78
2024-01-20T08:18:05.110Z,101145.47
2024-01-20T08:20:08.165Z,101097.72
2024-01-20T08:22:10.254Z,101085.28
2024-01-20T08:24:12.406Z,101126.09
2024-01-20T08:26:14.967Z,101121.75
2024-01-20T08:28:16.922Z,101109.84
2024-01-20T08:30:19.076Z,101116.13
2024-01-20T08:32:22.924Z,101118.94
2024-01-20T08:34:25.266Z,101136.19
2024-01-20T08:36:27.409Z,101129.72
2024-01-20T08:38:29.500Z,101129.91
2024-01-20T08:40:31.623Z,101121.28
2024-01-20T08:42:33.866Z,101182.63
2024-01-20T08:44:36.304Z,101134.88
2024-01-20T08:46:38.320Z,101137.69
2024-01-20T08:48:41.171Z,101115.84
2024-01-20T08:50:43.405Z,101129.41
2024-01-20T08:52:45.986Z,101152.28
2024-01-20T08:54:48.362Z,101154.75
2024-01-20T08:56:51.045Z,101102.72
2024-01-20T08:58:53.014Z,101163.06
2024-01-20T09:00:55.148Z,101161.06
2024-01-20T09:02:57.504Z,101122.94
2024-01-20T09:04:59.830Z,101099.75
2024-01-20T09:07:02.085Z,101141.19
2024-01-20T09:09:04.314Z,101123.63
2024-01-20T09:11:06.363Z,101126.59
2024-01-20T09:13:08.621Z,101129.91
2024-01-20T09:15:12.208Z,101121.28
2024-01-20T09:17:14.419Z,101145.66
2024-01-20T09:19:17.236Z,101140.84
2024-01-20T09:21:19.572Z,101152.94
2024-01-20T09:23:22.022Z,101114.97
2024-01-20T09:25:24.135Z,101113.81
2024-01-20T09:27:27.102Z,101144.16
2024-01-20T09:29:29.249Z,101142.16
2024-01-20T09:31:31.504Z,101146.31
2024-01-20T09:33:33.722Z,101121.59
2024-01-20T09:35:35.911Z,101192.09
2024-01-20T09:37:38.262Z,101170.88
2024-01-20T09:39:40.639Z,101162.56
2024-01-20T09:41:42.785Z,101197.38
2024-01-20T09:43:45.742Z,101126.06
2024-01-20T09:45:47.954Z,101137.00
2024-01-20T09:47:50.135Z,101103.81
2024-01-20T09:49:52.405Z,101167.16
2024-01-20T09:51:54.583Z,101128.03
2024-01-20T09:54:00.660Z,101129.19
2024-01-20T09:56:03.751Z,101140.31
2024-01-20T09:58:05.941Z,101160.53
2024-01-20T10:00:09.673Z,101144.28
2024-01-20T10:02:13.050Z,101156.03
2024-01-20T10:04:15.526Z,101114.22
2024-01-20T10:06:17.754Z,101135.28
2024-01-20T10:08:19.981Z,101192.53
2024-01-20T10:10:23.437Z,101184.06
2024-01-20T10:12:25.805Z,101180.91
2024-01-20T10:14:27.997Z,101041.00
2024-01-20T10:16:40.363Z,101109.72
2024-01-20T10:18:42.492Z,101083.16
2024-01-20T10:20:46.842Z,101140.22
2024-01-20T10:22:50.622Z,101124.13
2024-01-20T10:24:53.787Z,101173.59
2024-01-20T10:26:55.949Z,101153.34
2024-01-20T10:28:58.474Z,101144.38
2024-01-20T10:31:07.681Z,101115.16
2024-01-20T10:33:11.144Z,101175.75
2024-01-20T10:35:13.935Z,101219.22
2024-01-20T10:37:16.265Z,101091.91
2024-01-20T10:39:21.563Z,101098.88
2024-01-20T10:41:25.511Z,101121.78
2024-01-20T10:43:32.025Z,101153.66
2024-01-20T10:45:41.796Z,101120.59
2024-01-20T10:48:01.701Z,101119.78
2024-01-20T10:50:08.612Z,101125.75
2024-01-20T10:52:10.937Z,101093.72
2024-01-20T10:54:13.579Z,101103.34
2024-01-20T10:56:15.634Z,101108.47
2024-01-20T10:58:19.143Z,101171.88
2024-01-20T11:00:21.656Z,101158.25
2024-01-20T11:02:24.312Z,101099.81
2024-01-20T11:04:34.109Z,101108.59
2024-01-20T11:06:37.241Z,101100.81
2024-01-20T11:08:39.435Z,101120.41
2024-01-20T11:10:42.667Z,101114.41
2024-01-20T11:12:58.517Z,101135.16
2024-01-20T11:15:00.814Z,101118.69
2024-01-20T11:17:15.846Z,101101.03
2024-01-20T11:19:18.088Z,101106.47
2024-01-20T11:21:20.797Z,101112.97
2024-01-20T11:23:23.142Z,101084.91
2024-01-20T11:25:25.609Z,101115.34
2024-01-20T11:27:27.811Z,101069.97
2024-01-20T11:29:30.064Z,101119.31
2024-01-20T11:31:32.352Z,101075.78
2024-01-20T11:33:35.104Z,101111.63
2024-01-20T11:35:38.547Z,101115.75
2024-01-20T11:37:40.673Z,101117.22
2024-01-20T11:39:42.895Z,101092.97
2024-01-20T11:41:45.686Z,101077.03
2024-01-20T11:43:48.096Z,101105.78
2024-01-20T11:45:50.814Z,101089.72
2024-01-20T11:47:53.028Z,101092.72
2024-01-20T11:49:55.924Z,101102.16
2024-01-20T11:51:58.348Z,101206.47
2024-01-20T11:54:00.455Z,101084.38
2024-01-20T11:56:04.389Z,101109.66
2024-01-20T11:58:06.462Z,101109.81
2024-01-20T12:00:12.265Z,101148.16
2024-01-20T12:02:14.564Z,101092.44
2024-01-20T12:04:17.219Z,101088.16
2024-01-20T12:06:19.521Z,101117.06
2024-01-20T12:08:22.060Z,101098.63
2024-01-20T12:10:24.103Z,101138.03
2024-01-20T12:12:26.897Z,101125.75
2024-01-20T12:14:29.187Z,101120.59
2024-01-20T12:16:31.336Z,101125.44
2024-01-20T12:18:34.497Z,101127.28
2024-01-20T12:20:40.049Z,101148.53
2024-01-20T12:22:42.109Z,101120.47
2024-01-20T12:24:48.359Z,101150.06
2024-01-20T12:26:50.747Z,101098.06
2024-01-20T12:28:54.461Z,101127.66
2024-01-20T12:30:56.571Z,101165.38
2024-01-20T12:32:58.890Z,101178.16
2024-01-20T12:35:01.080Z,101151.28
2024-01-20T12:37:04.520Z,101179.69
2024-01-20T12:39:07.570Z,101151.78
2024-01-20T12:41:09.692Z,101152.63
2024-01-20T12:43:12.334Z,101112.78
2024-01-20T12:45:16.521Z,101135.91
2024-01-20T12:47:18.649Z,101165.25
2024-01-20T12:49:21.671Z,101176.25
2024-01-20T12:51:23.986Z,101187.19
2024-01-20T12:53:26.317Z,101171.63
2024-01-20T12:55:28.421Z,101162.97
2024-01-20T12:57:30.522Z,101177.25
2024-01-20T12:59:33.022Z,101192.72
2024-01-20T13:01:35.537Z,101164.66
2024-01-20T13:03:37.676Z,101185.41
2024-01-20T13:05:39.850Z,101205.34
2024-01-20T13:07:41.993Z,101234.84
2024-01-20T13:09:44.513Z,101204.19
2024-01-20T13:11:46.591Z,101171.50
2024-01-20T13:13:48.823Z,101238.00
2024-01-20T13:15:51.133Z,101202.69
2024-01-20T13:17:53.431Z,101208.81
2024-01-20T13:19:55.588Z,101215.78
2024-01-20T13:21:57.676Z,101207.81
2024-01-20T13:24:00.931Z,101218.44
2024-01-20T13:26:03.229Z,101227.25
2024-01-20T13:28:05.750Z,101222.75
2024-01-20T13:30:08.676Z,101239.34
2024-01-20T13:32:10.859Z,101261.56
2024-01-20T13:34:12.943Z,101211.97
2024-01-20T13:36:15.062Z,101257.09
2024-01-20T13:38:17.122Z,101237.69
2024-01-20T13:40:19.327Z,101244.66
2024-01-20T13:42:21.473Z,101241.16
2024-01-20T13:44:23.819Z,101234.22
2024-01-20T13:46:26.334Z,101232.56
2024-01-20T13:48:28.534Z,101249.63
2024-01-20T13:50:30.841Z,101263.91
2024-01-20T13:52:32.871Z,101257.94
2024-01-20T13:54:34.989Z,101258.75
2024-01-20T13:56:37.036Z,101270.53
2024-01-20T13:58:39.476Z,101261.91
2024-01-20T14:00:42.605Z,101271.69
2024-01-20T14:02:45.804Z,101259.09
2024-01-20T14:04:48.104Z,101296.25
2024-01-20T14:06:51.673Z,101306.03
2024-01-20T14:08:53.916Z,101287.63
2024-01-20T14:10:56.334Z,101292.94
2024-01-20T14:13:00.794Z,101299.91
2024-01-20T14:15:04.256Z,101326.75
2024-01-20T14:17:06.458Z,101321.94
2024-01-20T14:19:09.337Z,101323.59
2024-01-20T14:21:11.856Z,101319.97
2024-01-20T14:23:13.950Z,101298.91
2024-01-20T14:25:18.091Z,101315.47
2024-01-20T14:27:20.416Z,101328.09
2024-01-20T14:29:22.572Z,101307.84
2024-01-20T14:31:24.772Z,101335.53
2024-01-20T14:33:27.105Z,101333.88
2024-01-20T14:35:29.248Z,101371.03
2024-01-20T14:37:31.383Z,101359.28
2024-01-20T14:39:33.618Z,101347.97
2024-01-20T14:41:36.088Z,101362.91
2024-01-20T14:43:39.099Z,101377.69
2024-01-20T14:45:41.334Z,101365.25
2024-01-20T14:47:43.517Z,101403.91
2024-01-20T14:49:45.883Z,101406.41
2024-01-20T14:51:48.264Z,101382.16
2024-01-20T14:53:50.942Z,101384.00
2024-01-20T14:55:55.614Z,101403.41
2024-01-20T14:57:57.708Z,101420.16
2024-01-20T15:00:00.042Z,101416.53
2024-01-20T15:02:04.637Z,101389.00
2024-01-20T15:04:07.714Z,101422.50
2024-01-20T15:06:11.057Z,101405.59
2024-01-20T15:08:13.168Z,101414.38
2024-01-20T15:10:15.376Z,101388.66
2024-01-20T15:12:19.119Z,101414.22
2024-01-20T15:14:21.574Z,101408.94
2024-01-20T15:16:23.795Z,101435.47
2024-01-20T15:18:26.039Z,101420.19
2024-01-20T15:20:28.446Z,101436.78
2024-01-20T15:22:30.622Z,101433.16
2024-01-20T15:24:32.876Z,101433.00
2024-01-20T15:26:35.152Z,101446.25
2024-01-20T15:30:55.801Z,101427.69
2024-01-20T15:32:57.959Z,101442.78
2024-01-20T15:35:00.228Z,101446.44
2024-01-20T15:37:10.426Z,101465.69
2024-01-20T15:39:12.544Z,101471.81
2024-01-20T15:41:15.718Z,101478.31
2024-01-20T15:43:19.171Z,101472.81
2024-01-20T15:45:21.363Z,101476.31
2024-01-20T15:47:23.490Z,101472.81
2024-01-20T15:49:25.774Z,101477.44
2024-01-20T15:51:28.004Z,101491.41
2024-01-20T15:53:30.158Z,101503.03
2024-01-20T15:55:32.181Z,101504.84
2024-01-20T15:57:34.377Z,101507.34
2024-01-20T15:59:36.426Z,101522.94
2024-01-20T16:01:38.604Z,101507.69
2024-01-20T16:03:40.902Z,101508.19
2024-01-20T16:05:43.102Z,101514.47
2024-01-20T16:07:45.270Z,101517.81
2024-01-20T16:09:47.457Z,101523.81
2024-01-20T16:11:52.890Z,101527.44
2024-01-20T16:13:54.998Z,101527.94
2024-01-20T16:15:57.062Z,101521.28
2024-01-20T16:17:59.288Z,101520.91
2024-01-20T16:20:01.474Z,101559.91
2024-01-20T16:22:03.818Z,101547.94
2024-01-20T16:24:06.193Z,101529.22
2024-01-20T16:26:08.353Z,101548.63
2024-01-20T16:28:10.410Z,101545.28
2024-01-20T16:30:13.061Z,101556.91
2024-01-20T16:32:15.125Z,101567.53
2024-01-20T16:34:17.301Z,101552.59
2024-01-20T16:36:22.515Z,101560.84
2024-01-20T16:38:24.723Z,101553.41
2024-01-20T16:40:27.149Z,101554.69
2024-01-20T16:42:29.523Z,101582.25
2024-01-20T16:44:31.760Z,101582.25
2024-01-20T16:46:34.629Z,101588.50
2024-01-20T16:48:37.099Z,101571.09
2024-01-20T16:50:39.268Z,101580.72
2024-01-20T16:52:41.517Z,101575.75
2024-01-20T16:54:43.810Z,101566.09
2024-01-20T16:56:45.960Z,101599.09
2024-01-20T16:58:48.066Z,101586.97
2024-01-20T17:00:50.403Z,101595.91
2024-01-20T17:02:52.696Z,101610.00
2024-01-20T17:04:55.015Z,101601.91
2024-01-20T17:06:57.304Z,101609.03
2024-01-20T17:08:59.465Z,101608.34
2024-01-20T17:11:01.577Z,101639.91
2024-01-20T17:13:03.780Z,101624.63
2024-01-20T17:15:06.896Z,101630.78
2024-01-20T17:17:09.336Z,101631.94
2024-01-20T17:19:11.660Z,101660.28
2024-01-20T17:21:17.587Z,101654.28
2024-01-20T17:23:19.836Z,101654.16
2024-01-20T17:25:22.183Z,101665.75
2024-01-20T17:27:24.779Z,101662.94
2024-01-20T17:29:29.126Z,101669.59
2024-01-20T17:31:35.033Z,101676.59
2024-01-20T17:33:37.192Z,101664.16
2024-01-20T17:35:40.141Z,101660.50
2024-01-20T17:37:42.213Z,101688.69
2024-01-20T17:39:46.000Z,101681.56
2024-01-20T17:41:49.472Z,101682.72
2024-01-20T17:43:51.641Z,101687.34
2024-01-20T17:45:53.803Z,101697.13
2024-01-20T17:47:56.072Z,101703.25
2024-01-20T17:49:58.243Z,101701.59
2024-01-20T17:52:00.298Z,101693.47
2024-01-20T17:54:02.487Z,101705.91
2024-01-20T17:56:05.056Z,101692.50
2024-01-20T17:58:08.395Z,101722.00
2024-01-20T18:00:14.149Z,101715.03
2024-01-20T18:02:16.628Z,101720.50
2024-01-20T18:04:18.790Z,101739.09
2024-01-20T18:06:21.469Z,101740.59
2024-01-20T18:08:25.553Z,101742.41
2024-01-20T18:10:27.718Z,101739.91
2024-01-20T18:12:30.265Z,101742.13
2024-01-20T18:14:35.149Z,101744.91
2024-01-20T18:16:41.260Z,101754.00
2024-01-20T18:18:43.400Z,101748.72
2024-01-20T18:20:45.623Z,101751.81
2024-01-20T18:22:49.111Z,101756.44
2024-01-20T18:24:51.275Z,101765.25
2024-01-20T18:26:53.964Z,101775.84
2024-01-20T18:28:55.924Z,101762.59
2024-01-20T18:30:58.081Z,101772.03
2024-01-20T18:33:00.404Z,101777.53
2024-01-20T18:35:03.311Z,101790.63
2024-01-20T18:37:05.974Z,101784.78
2024-01-20T18:39:08.768Z,101797.75
2024-01-20T18:41:11.045Z,101793.97
2024-01-20T18:43:13.153Z,101792.28
2024-01-20T18:45:15.360Z,101803.91
2024-01-20T18:47:18.019Z,101807.25
2024-01-20T18:49:20.151Z,101810.88
2024-01-20T18:51:22.504Z,101811.41
2024-01-20T18:53:24.668Z,101820.19
2024-01-20T18:55:26.931Z,101826.66
2024-01-20T18:57:29.226Z,101827.78
2024-01-20T18:59:31.386Z,101833.09
2024-01-20T19:01:33.999Z,101828.94
2024-01-20T19:03:36.773Z,101843.47
2024-01-20T19:05:39.315Z,101848.78
2024-01-20T19:07:41.610Z,101849.16
2024-01-20T19:09:44.549Z,101863.28
2024-01-20T19:11:46.830Z,101855.47
2024-01-20T19:13:50.153Z,101864.25
2024-01-20T19:15:52.297Z,101868.72
2024-01-20T19:17:54.658Z,101878.53
2024-01-20T19:19:56.885Z,101866.22
2024-01-20T19:21:58.981Z,101868.84
2024-01-20T19:24:01.556Z,101863.56
2024-01-20T19:26:03.659Z,101875.00
2024-01-20T19:28:06.036Z,101886.47
2024-01-20T19:30:09.064Z,101881.16
2024-01-20T19:32:11.283Z,101885.63
2024-01-20T19:34:13.507Z,101893.28
2024-01-20T19:36:15.748Z,101896.63
2024-01-20T19:38:17.924Z,101897.16
2024-01-20T19:40:20.153Z,101903.91
2024-01-20T19:42:22.282Z,101903.91
2024-01-20T19:44:24.395Z,101912.41
2024-01-20T19:46:26.454Z,101917.28
2024-01-20T19:48:28.673Z,101919.94
2024-01-20T19:50:30.840Z,101922.44
2024-01-20T19:52:32.921Z,101932.06
2024-01-20T19:54:35.202Z,101928.03
2024-01-20T19:56:45.568Z,101929.03
2024-01-20T19:58:48.357Z,101929.03
2024-01-20T20:00:51.406Z,101942.28
2024-01-20T20:02:54.085Z,101948.44
2024-01-20T20:04:56.200Z,101944.78
2024-01-20T20:06:58.380Z,101943.28
2024-01-20T20:09:00.456Z,101949.56
2024-01-20T20:11:03.002Z,101940.63
2024-01-20T20:13:05.111Z,101938.13
2024-01-20T20:15:09.692Z,101949.56
2024-01-20T20:17:11.803Z,101954.88
2024-01-20T20:19:14.151Z,101953.06
2024-01-20T20:21:17.168Z,101953.91
2024-01-20T20:23:19.288Z,101954.56
2024-01-20T20:25:21.468Z,101961.41
2024-01-20T20:27:23.660Z,101971.72
2024-01-20T20:29:26.020Z,101970.44
2024-01-20T20:31:28.386Z,101973.25
2024-01-20T20:33:30.675Z,101960.81
2024-01-20T20:35:34.431Z,101984.72
2024-01-20T20:37:36.537Z,101975.47
2024-01-20T20:39:38.700Z,101985.50
2024-01-20T20:41:40.977Z,101989.97
2024-01-20T20:43:43.729Z,101982.97
2024-01-20T20:45:45.987Z,101985.34
2024-01-20T20:47:48.208Z,101985.06
2024-01-20T20:49:51.727Z,101984.19
2024-01-20T20:51:54.200Z,101989.00
2024-01-20T20:53:56.834Z,101990.50
2024-01-20T20:55:59.641Z,101999.00
2024-01-20T20:58:02.239Z,102000.69
2024-01-20T21:00:05.100Z,102003.34
2024-01-20T21:02:08.334Z,102008.47
2024-01-20T21:04:11.584Z,102002.50
2024-01-20T21:06:13.905Z,102004.59
2024-01-20T21:08:16.248Z,102009.41
2024-01-20T21:10:21.077Z,102013.16
2024-01-20T21:12:23.338Z,102013.16
2024-01-20T21:14:26.341Z,102015.81
2024-01-20T21:16:29.531Z,102012.31
2024-01-20T21:18:31.766Z,102022.13
2024-01-20T21:20:34.133Z,102011.09
2024-01-20T21:22:36.643Z,102018.38
2024-01-20T21:24:38.724Z,102028.44
2024-01-20T21:26:42.143Z,102028.44
2024-01-20T21:28:52.138Z,102032.78
2024-01-20T21:30:55.098Z,102033.59
2024-01-20T21:32:57.323Z,102026.63
2024-01-20T21:34:59.490Z,102033.75
2024-01-20T21:37:03.736Z,102037.25
2024-01-20T21:39:10.911Z,102034.75
2024-01-20T21:41:14.729Z,102036.41
2024-01-20T21:43:17.001Z,102041.72
2024-01-20T21:45:19.061Z,102035.59
2024-01-20T21:47:21.165Z,102038.25
2024-01-20T21:49:23.466Z,102039.75
2024-01-20T21:51:25.681Z,102045.22
2024-01-20T21:53:28.767Z,102044.38
2024-01-20T21:55:30.844Z,102047.72
2024-01-20T21:57:33.434Z,102056.38
2024-01-20T21:59:35.520Z,102055.84
2024-01-20T22:01:38.073Z,102055.84
2024-01-20T22:03:40.579Z,102059.47
2024-01-20T22:05:42.805Z,102062.13
2024-01-20T22:07:46.272Z,102070.09
2024-01-20T22:09:52.166Z,102076.22
2024-01-20T22:11:54.256Z,102074.84
2024-01-20T22:13:56.686Z,102074.00
2024-01-20T22:15:58.887Z,102081.97
2024-01-20T22:18:01.124Z,102078.63
2024-01-20T22:20:03.779Z,102083.94
2024-01-20T22:22:06.393Z,102090.09
2024-01-20T22:24:08.796Z,102091.06
2024-01-20T22:26:20.728Z,102092.06
2024-01-20T22:28:22.814Z,102089.41
2024-01-20T22:30:25.199Z,102095.56
2024-01-20T22:32:27.352Z,102100.97
2024-01-20T22:34:32.601Z,102100.03
2024-01-20T22:36:35.460Z,102106.16
2024-01-20T22:38:38.924Z,102116.78
2024-01-20T22:40:41.154Z,102109.81
2024-01-20T22:42:43.407Z,102121.09
2024-01-20T22:44:46.152Z,102118.16
2024-01-20T22:46:50.014Z,102124.69
2024-01-20T22:48:52.268Z,102126.81
2024-01-20T22:50:55.733Z,102130.16
2024-01-20T22:52:58.101Z,102122.50
2024-01-20T22:55:00.244Z,102130.47
2024-01-20T22:57:05.870Z,102126.81
2024-01-20T22:59:08.767Z,102129.47
2024-01-20T23:01:12.439Z,102128.91
2024-01-20T23:03:14.698Z,102129.91
2024-01-20T23:05:17.159Z,102137.19
2024-01-20T23:07:19.282Z,102134.66
2024-01-20T23:09:22.167Z,102124.34
2024-01-20T23:11:24.420Z,102125.00
2024-01-20T23:13:27.778Z,102129.34
2024-01-20T23:15:30.396Z,102140.78
2024-01-20T23:17:33.933Z,102139.13
2024-01-20T23:19:36.103Z,102132.81
2024-01-20T23:21:38.315Z,102134.66